createdAt,value
2024-02-02T00:00:37.513Z,975.00
2024-02-02T00:01:37.434Z,977.00
2024-02-02T00:02:37.477Z,974.00
2024-02-02T00:03:37.572Z,973.00
2024-02-02T00:04:37.558Z,972.00
2024-02-02T00:05:37.477Z,973.00
2024-02-02T00:06:37.592Z,969.00
2024-02-02T00:07:37.582Z,965.00
2024-02-02T00:08:37.550Z,964.00
2024-02-02T00:09:37.630Z,963.00
2024-02-02T00:10:37.584Z,961.00
2024-02-02T00:11:37.593Z,961.00
2024-02-02T00:12:37.698Z,959.00
2024-02-02T00:13:37.614Z,957.00
2024-02-02T00:14:37.656Z,958.00
2024-02-02T00:15:37.723Z,958.00
2024-02-02T00:16:37.731Z,958.00
2024-02-02T00:17:37.724Z,955.00
2024-02-02T00:18:37.802Z,955.00
2024-02-02T00:19:37.910Z,956.00
2024-02-02T00:20:37.770Z,953.00
2024-02-02T00:21:37.806Z,951.00
2024-02-02T00:22:37.829Z,950.00
2024-02-02T00:23:37.820Z,950.00
2024-02-02T00:24:37.914Z,952.00
2024-02-02T00:25:37.886Z,953.00
2024-02-02T00:26:37.885Z,951.00
2024-02-02T00:27:37.940Z,950.00
2024-02-02T00:28:37.925Z,949.00
2024-02-02T00:29:37.961Z,948.00
2024-02-02T00:30:38.044Z,947.00
2024-02-02T00:31:38.033Z,947.00
2024-02-02T00:32:38.036Z,945.00
2024-02-02T00:33:38.291Z,944.00
2024-02-02T00:34:38.136Z,943.00
2024-02-02T00:35:38.056Z,943.00
2024-02-02T00:36:38.132Z,940.00
2024-02-02T00:37:38.096Z,940.00
2024-02-02T00:38:38.124Z,942.00
2024-02-02T00:39:38.222Z,938.00
2024-02-02T00:40:38.177Z,936.00
2024-02-02T00:41:38.195Z,934.00
2024-02-02T00:42:38.317Z,933.00
2024-02-02T00:43:38.231Z,934.00
2024-02-02T00:44:38.241Z,932.00
2024-02-02T00:45:38.360Z,933.00
2024-02-02T00:46:38.305Z,934.00
2024-02-02T00:47:38.330Z,931.00
2024-02-02T00:48:38.408Z,928.00
2024-02-02T00:49:38.496Z,926.00
2024-02-02T00:50:38.345Z,925.00
2024-02-02T00:51:38.419Z,925.00
2024-02-02T00:52:38.385Z,925.00
2024-02-02T00:53:38.401Z,922.00
2024-02-02T00:54:38.479Z,924.00
2024-02-02T00:55:38.457Z,925.00
2024-02-02T00:56:38.492Z,924.00
2024-02-02T00:57:38.630Z,922.00
2024-02-02T00:58:38.485Z,921.00
2024-02-02T00:59:38.508Z,920.00
2024-02-02T01:00:38.636Z,921.00
2024-02-02T01:01:38.564Z,920.00
2024-02-02T01:02:38.613Z,921.00
2024-02-02T01:03:38.802Z,924.00
2024-02-02T01:04:39.539Z,925.00
2024-02-02T01:05:38.640Z,925.00
2024-02-02T01:06:38.690Z,925.00
2024-02-02T01:07:38.654Z,924.00
2024-02-02T01:08:38.670Z,921.00
2024-02-02T01:09:38.722Z,921.00
2024-02-02T01:10:38.713Z,922.00
2024-02-02T01:11:38.718Z,921.00
2024-02-02T01:12:38.801Z,920.00
2024-02-02T01:13:38.749Z,918.00
2024-02-02T01:14:38.759Z,917.00
2024-02-02T01:15:38.820Z,913.00
2024-02-02T01:16:38.842Z,911.00
2024-02-02T01:17:38.866Z,910.00
2024-02-02T01:18:38.962Z,910.00
2024-02-02T01:19:38.882Z,912.00
2024-02-02T01:20:38.872Z,909.00
2024-02-02T01:21:39.630Z,909.00
2024-02-02T01:22:38.930Z,910.00
2024-02-02T01:23:39.006Z,908.00
2024-02-02T01:24:38.978Z,911.00
2024-02-02T01:25:38.988Z,912.00
2024-02-02T01:26:39.012Z,912.00
2024-02-02T01:27:39.024Z,910.00
2024-02-02T01:28:39.070Z,909.00
2024-02-02T01:29:39.078Z,908.00
2024-02-02T01:30:39.114Z,907.00
2024-02-02T01:31:39.140Z,906.00
2024-02-02T01:32:39.247Z,907.00
2024-02-02T01:33:39.231Z,904.00
2024-02-02T01:34:39.307Z,903.00
2024-02-02T01:35:39.226Z,902.00
2024-02-02T01:36:39.239Z,901.00
2024-02-02T01:37:39.250Z,901.00
2024-02-02T01:38:39.288Z,902.00
2024-02-02T01:39:39.284Z,902.00
2024-02-02T01:40:39.275Z,902.00
2024-02-02T01:41:39.320Z,903.00
2024-02-02T01:42:39.359Z,901.00
2024-02-02T01:43:39.360Z,902.00
2024-02-02T01:44:39.360Z,900.00
2024-02-02T01:45:39.419Z,901.00
2024-02-02T01:46:39.434Z,900.00
2024-02-02T01:47:39.470Z,895.00
2024-02-02T01:48:39.568Z,893.00
2024-02-02T01:49:39.568Z,896.00
2024-02-02T01:50:39.445Z,895.00
2024-02-02T01:51:39.481Z,893.00
2024-02-02T01:52:39.520Z,893.00
2024-02-02T01:53:39.534Z,894.00
2024-02-02T01:54:39.555Z,893.00
2024-02-02T01:55:39.560Z,890.00
2024-02-02T01:56:39.554Z,892.00
2024-02-02T01:57:39.588Z,890.00
2024-02-02T01:58:39.600Z,887.00
2024-02-02T01:59:39.605Z,886.00
2024-02-02T02:00:39.723Z,888.00
2024-02-02T02:01:39.655Z,887.00
2024-02-02T02:02:39.649Z,889.00
2024-02-02T02:03:39.756Z,887.00
2024-02-02T02:04:39.750Z,888.00
2024-02-02T02:05:39.812Z,888.00
2024-02-02T02:06:39.757Z,885.00
2024-02-02T02:07:39.767Z,880.00
2024-02-02T02:08:39.815Z,881.00
2024-02-02T02:09:39.839Z,883.00
2024-02-02T02:10:39.789Z,884.00
2024-02-02T02:11:39.821Z,882.00
2024-02-02T02:12:39.861Z,879.00
2024-02-02T02:13:39.824Z,880.00
2024-02-02T02:14:39.896Z,879.00
2024-02-02T02:15:39.917Z,880.00
2024-02-02T02:16:39.854Z,878.00
2024-02-02T02:17:40.139Z,878.00
2024-02-02T02:18:44.569Z,876.00
2024-02-02T02:19:41.036Z,875.00
2024-02-02T02:20:39.979Z,876.00
2024-02-02T02:21:39.916Z,875.00
2024-02-02T02:22:39.902Z,877.00
2024-02-02T02:23:39.953Z,876.00
2024-02-02T02:25:39.936Z,879.00
2024-02-02T02:26:39.927Z,879.00
2024-02-02T02:27:39.929Z,878.00
2024-02-02T02:28:39.921Z,878.00
2024-02-02T02:29:39.916Z,879.00
2024-02-02T02:30:39.971Z,877.00
2024-02-02T02:31:39.955Z,874.00
2024-02-02T02:32:40.058Z,873.00
2024-02-02T02:33:40.132Z,872.00
2024-02-02T02:34:40.060Z,872.00
2024-02-02T02:35:39.926Z,874.00
2024-02-02T02:36:39.934Z,873.00
2024-02-02T02:37:39.924Z,874.00
2024-02-02T02:38:39.937Z,871.00
2024-02-02T02:39:39.959Z,872.00
2024-02-02T02:40:39.942Z,874.00
2024-02-02T02:41:39.924Z,874.00
2024-02-02T02:42:40.023Z,875.00
2024-02-02T02:43:39.963Z,874.00
2024-02-02T02:44:39.928Z,873.00
2024-02-02T02:45:39.999Z,871.00
2024-02-02T02:46:39.940Z,871.00
2024-02-02T02:47:40.019Z,870.00
2024-02-02T02:48:40.063Z,869.00
2024-02-02T02:49:40.043Z,870.00
2024-02-02T02:50:39.955Z,871.00
2024-02-02T02:51:39.974Z,869.00
2024-02-02T02:52:39.946Z,868.00
2024-02-02T02:53:39.942Z,866.00
2024-02-02T02:54:39.949Z,863.00
2024-02-02T02:55:39.934Z,860.00
2024-02-02T02:56:39.947Z,862.00
2024-02-02T02:57:40.047Z,862.00
2024-02-02T02:58:39.971Z,863.00
2024-02-02T02:59:39.971Z,861.00
2024-02-02T03:00:40.042Z,864.00
2024-02-02T03:01:40.047Z,859.00
2024-02-02T03:02:40.105Z,858.00
2024-02-02T03:03:40.170Z,857.00
2024-02-02T03:04:40.136Z,858.00
2024-02-02T03:05:40.044Z,857.00
2024-02-02T03:06:40.202Z,854.00
2024-02-02T03:07:40.094Z,853.00
2024-02-02T03:08:40.096Z,853.00
2024-02-02T03:09:40.137Z,854.00
2024-02-02T03:10:40.170Z,854.00
2024-02-02T03:11:40.153Z,852.00
2024-02-02T03:12:40.265Z,850.00
2024-02-02T03:13:40.166Z,851.00
2024-02-02T03:14:40.215Z,852.00
2024-02-02T03:15:40.271Z,852.00
2024-02-02T03:16:40.251Z,850.00
2024-02-02T03:17:40.288Z,850.00
2024-02-02T03:18:42.959Z,848.00
2024-02-02T03:19:40.309Z,847.00
2024-02-02T03:20:40.252Z,846.00
2024-02-02T03:21:40.283Z,846.00
2024-02-02T03:22:40.287Z,844.00
2024-02-02T03:23:40.258Z,842.00
2024-02-02T03:24:40.341Z,840.00
2024-02-02T03:25:40.255Z,839.00
2024-02-02T03:26:40.285Z,840.00
2024-02-02T03:27:40.313Z,840.00
2024-02-02T03:28:40.309Z,839.00
2024-02-02T03:29:40.276Z,836.00
2024-02-02T03:30:40.345Z,840.00
2024-02-02T03:31:40.426Z,841.00
2024-02-02T03:32:40.350Z,841.00
2024-02-02T03:33:40.366Z,843.00
2024-02-02T03:34:40.344Z,844.00
2024-02-02T03:35:40.276Z,844.00
2024-02-02T03:36:40.271Z,840.00
2024-02-02T03:37:40.304Z,841.00
2024-02-02T03:38:40.307Z,839.00
2024-02-02T03:39:40.337Z,837.00
2024-02-02T03:40:40.276Z,837.00
2024-02-02T03:41:40.273Z,838.00
2024-02-02T03:42:40.319Z,840.00
2024-02-02T03:43:40.274Z,840.00
2024-02-02T03:44:40.299Z,839.00
2024-02-02T03:45:40.388Z,839.00
2024-02-02T03:46:40.293Z,839.00
2024-02-02T03:47:40.326Z,841.00
2024-02-02T03:48:40.393Z,840.00
2024-02-02T03:49:40.367Z,840.00
2024-02-02T03:50:40.289Z,839.00
2024-02-02T03:51:40.301Z,837.00
2024-02-02T03:52:40.305Z,837.00
2024-02-02T03:53:40.272Z,838.00
2024-02-02T03:54:40.340Z,836.00
2024-02-02T03:55:40.285Z,837.00
2024-02-02T03:56:40.273Z,838.00
2024-02-02T03:57:40.310Z,837.00
2024-02-02T03:58:40.284Z,837.00
2024-02-02T03:59:40.324Z,838.00
2024-02-02T04:00:40.364Z,841.00
2024-02-02T04:01:40.301Z,841.00
2024-02-02T04:02:40.378Z,839.00
2024-02-02T04:03:40.406Z,837.00
2024-02-02T04:04:40.327Z,837.00
2024-02-02T04:05:40.342Z,837.00
2024-02-02T04:06:40.308Z,837.00
2024-02-02T04:07:40.305Z,838.00
2024-02-02T04:08:42.362Z,838.00
2024-02-02T04:09:40.438Z,838.00
2024-02-02T04:10:40.296Z,837.00
2024-02-02T04:11:40.311Z,835.00
2024-02-02T04:12:40.344Z,837.00
2024-02-02T04:13:40.289Z,837.00
2024-02-02T04:14:40.297Z,837.00
2024-02-02T04:15:40.393Z,836.00
2024-02-02T04:16:40.332Z,835.00
2024-02-02T04:17:40.338Z,834.00
2024-02-02T04:18:40.438Z,832.00
2024-02-02T04:19:40.426Z,830.00
2024-02-02T04:20:47.606Z,813.00
2024-02-02T04:21:47.613Z,820.00
2024-02-02T04:22:47.621Z,821.00
2024-02-02T04:23:47.625Z,824.00
2024-02-02T04:24:47.610Z,824.00
2024-02-02T04:25:47.633Z,825.00
2024-02-02T04:26:47.626Z,824.00
2024-02-02T04:27:47.641Z,821.00
2024-02-02T04:28:47.654Z,823.00
2024-02-02T04:29:47.622Z,821.00
2024-02-02T04:30:47.638Z,821.00
2024-02-02T04:31:54.908Z,801.00
2024-02-02T04:32:54.982Z,809.00
2024-02-02T04:33:54.894Z,814.00
2024-02-02T04:34:54.846Z,818.00
2024-02-02T04:35:54.839Z,819.00
2024-02-02T04:36:54.824Z,821.00
2024-02-02T04:37:54.831Z,822.00
2024-02-02T04:38:54.820Z,820.00
2024-02-02T04:39:54.852Z,820.00
2024-02-02T04:40:54.837Z,817.00
2024-02-02T04:41:54.855Z,814.00
2024-02-02T04:42:54.835Z,815.00
2024-02-02T04:43:54.829Z,818.00
2024-02-02T04:44:54.871Z,820.00
2024-02-02T04:45:54.833Z,819.00
2024-02-02T04:46:54.844Z,818.00
2024-02-02T04:47:55.048Z,821.00
2024-02-02T04:48:55.100Z,820.00
2024-02-02T04:49:54.913Z,819.00
2024-02-02T04:50:54.919Z,818.00
2024-02-02T04:51:54.878Z,816.00
2024-02-02T04:52:56.441Z,816.00
2024-02-02T04:53:54.906Z,813.00
2024-02-02T04:54:54.905Z,811.00
2024-02-02T04:55:56.182Z,809.00
2024-02-02T04:56:54.947Z,808.00
2024-02-02T04:57:54.867Z,804.00
2024-02-02T04:58:54.844Z,805.00
2024-02-02T04:59:54.865Z,805.00
2024-02-02T05:00:54.890Z,805.00
2024-02-02T05:01:54.923Z,806.00
2024-02-02T05:02:54.893Z,805.00
2024-02-02T05:03:54.950Z,802.00
2024-02-02T05:04:54.860Z,801.00
2024-02-02T05:05:54.867Z,802.00
2024-02-02T05:06:54.862Z,799.00
2024-02-02T05:07:54.932Z,797.00
2024-02-02T05:08:54.905Z,800.00
2024-02-02T05:09:54.874Z,800.00
2024-02-02T05:10:54.876Z,800.00
2024-02-02T05:11:54.920Z,800.00
2024-02-02T05:12:54.863Z,802.00
2024-02-02T05:13:54.855Z,801.00
2024-02-02T05:14:54.894Z,803.00
2024-02-02T05:15:54.872Z,804.00
2024-02-02T05:16:54.881Z,802.00
2024-02-02T05:17:55.061Z,801.00
2024-02-02T05:18:55.035Z,801.00
2024-02-02T05:19:54.893Z,800.00
2024-02-02T05:20:54.887Z,800.00
2024-02-02T05:21:54.897Z,799.00
2024-02-02T05:22:54.889Z,800.00
2024-02-02T05:23:58.037Z,797.00
2024-02-02T05:24:55.935Z,799.00
2024-02-02T05:25:54.889Z,803.00
2024-02-02T05:26:54.891Z,801.00
2024-02-02T05:27:54.923Z,799.00
2024-02-02T05:28:54.906Z,799.00
2024-02-02T05:29:54.953Z,797.00
2024-02-02T05:30:54.942Z,797.00
2024-02-02T05:31:54.935Z,795.00
2024-02-02T05:32:54.961Z,793.00
2024-02-02T05:33:54.980Z,789.00
2024-02-02T05:34:54.973Z,786.00
2024-02-02T05:35:54.991Z,785.00
2024-02-02T05:36:54.920Z,784.00
2024-02-02T05:37:54.940Z,787.00
2024-02-02T05:38:54.971Z,787.00
2024-02-02T05:39:54.922Z,787.00
2024-02-02T05:40:54.904Z,786.00
2024-02-02T05:41:54.931Z,788.00
2024-02-02T05:42:54.928Z,786.00
2024-02-02T05:43:54.912Z,787.00
2024-02-02T05:44:55.056Z,787.00
2024-02-02T05:45:54.908Z,786.00
2024-02-02T05:46:54.932Z,785.00
2024-02-02T05:47:55.027Z,785.00
2024-02-02T05:48:55.026Z,784.00
2024-02-02T05:49:54.949Z,783.00
2024-02-02T05:50:55.028Z,784.00
2024-02-02T05:51:54.994Z,782.00
2024-02-02T05:52:54.924Z,782.00
2024-02-02T05:53:54.927Z,778.00
2024-02-02T05:54:54.948Z,776.00
2024-02-02T05:55:54.971Z,777.00
2024-02-02T05:56:54.991Z,774.00
2024-02-02T05:57:54.991Z,773.00
2024-02-02T05:58:55.007Z,771.00
2024-02-02T05:59:55.026Z,769.00
2024-02-02T06:00:55.044Z,768.00
2024-02-02T06:01:55.056Z,771.00
2024-02-02T06:02:55.064Z,771.00
2024-02-02T06:03:55.244Z,770.00
2024-02-02T06:04:55.125Z,768.00
2024-02-02T06:05:55.192Z,770.00
2024-02-02T06:06:55.362Z,769.00
2024-02-02T06:07:55.115Z,768.00
2024-02-02T06:08:58.053Z,771.00
2024-02-02T06:09:56.117Z,772.00
2024-02-02T06:10:55.119Z,772.00
2024-02-02T06:11:55.241Z,773.00
2024-02-02T06:12:55.175Z,771.00
2024-02-02T06:13:55.156Z,771.00
2024-02-02T06:14:55.177Z,770.00
2024-02-02T06:15:55.165Z,775.00
2024-02-02T06:16:55.153Z,774.00
2024-02-02T06:17:55.216Z,775.00
2024-02-02T06:18:55.409Z,774.00
2024-02-02T06:19:55.264Z,775.00
2024-02-02T06:20:55.185Z,773.00
2024-02-02T06:21:55.183Z,770.00
2024-02-02T06:22:55.170Z,769.00
2024-02-02T06:23:55.184Z,768.00
2024-02-02T06:24:55.142Z,768.00
2024-02-02T06:25:55.198Z,765.00
2024-02-02T06:26:55.196Z,761.00
2024-02-02T06:27:55.186Z,763.00
2024-02-02T06:28:55.178Z,764.00
2024-02-02T06:29:55.268Z,767.00
2024-02-02T06:30:55.175Z,765.00
2024-02-02T06:31:55.166Z,766.00
2024-02-02T06:32:55.292Z,766.00
2024-02-02T06:33:55.234Z,765.00
2024-02-02T06:34:55.222Z,766.00
2024-02-02T06:35:55.212Z,766.00
2024-02-02T06:36:55.163Z,764.00
2024-02-02T06:37:55.163Z,766.00
2024-02-02T06:38:55.187Z,767.00
2024-02-02T06:39:55.148Z,764.00
2024-02-02T06:40:55.195Z,763.00
2024-02-02T06:41:55.226Z,762.00
2024-02-02T06:42:55.155Z,761.00
2024-02-02T06:43:55.191Z,763.00
2024-02-02T06:44:55.176Z,763.00
2024-02-02T06:45:55.260Z,761.00
2024-02-02T06:46:55.211Z,761.00
2024-02-02T06:47:55.300Z,763.00
2024-02-02T06:48:55.327Z,768.00
2024-02-02T06:49:55.348Z,776.00
2024-02-02T06:50:55.287Z,789.00
2024-02-02T06:51:55.276Z,812.00
2024-02-02T06:52:55.281Z,828.00
2024-02-02T06:53:55.332Z,840.00
2024-02-02T06:54:55.328Z,846.00
2024-02-02T06:55:55.373Z,861.00
2024-02-02T06:56:55.376Z,874.00
2024-02-02T06:57:55.346Z,901.00
2024-02-02T06:58:55.357Z,968.00
2024-02-02T06:59:55.410Z,996.00
2024-02-02T07:00:55.635Z,1036.00
2024-02-02T07:01:55.495Z,1122.00
2024-02-02T07:02:55.640Z,1126.00
2024-02-02T07:03:55.761Z,1137.00
2024-02-02T07:04:55.713Z,1151.00
2024-02-02T07:05:55.911Z,1206.00
2024-02-02T07:06:55.951Z,1228.00
2024-02-02T07:07:55.906Z,1239.00
2024-02-02T07:08:56.078Z,1270.00
2024-02-02T07:09:56.049Z,1293.00
2024-02-02T07:10:56.090Z,1306.00
2024-02-02T07:11:56.145Z,1320.00
2024-02-02T07:12:56.142Z,1335.00
2024-02-02T07:13:56.138Z,1351.00
2024-02-02T07:14:56.257Z,1369.00
2024-02-02T07:15:56.241Z,1389.00
2024-02-02T07:16:56.292Z,1423.00
2024-02-02T07:17:56.407Z,1437.00
2024-02-02T07:18:56.393Z,1447.00
2024-02-02T07:19:56.452Z,1458.00
2024-02-02T07:20:56.415Z,1497.00
2024-02-02T07:21:56.418Z,1516.00
2024-02-02T07:22:56.452Z,1533.00
2024-02-02T07:23:56.594Z,1548.00
2024-02-02T07:24:56.532Z,1562.00
2024-02-02T07:25:56.559Z,1580.00
2024-02-02T07:26:56.623Z,1595.00
2024-02-02T07:27:56.662Z,1613.00
2024-02-02T07:28:56.692Z,1639.00
2024-02-02T07:29:56.714Z,1657.00
2024-02-02T07:30:56.736Z,1676.00
2024-02-02T07:31:56.776Z,1693.00
2024-02-02T07:32:56.913Z,1706.00
2024-02-02T07:33:56.928Z,1736.00
2024-02-02T07:34:59.175Z,1756.00
2024-02-02T07:35:56.964Z,1770.00
2024-02-02T07:36:56.876Z,1776.00
2024-02-02T07:37:56.833Z,1786.00
2024-02-02T07:38:57.208Z,1801.00
2024-02-02T07:39:56.840Z,1816.00
2024-02-02T07:40:56.864Z,1831.00
2024-02-02T07:41:56.885Z,1856.00
2024-02-02T07:42:56.894Z,1882.00
2024-02-02T07:43:56.858Z,1899.00
2024-02-02T07:44:56.941Z,1908.00
2024-02-02T07:45:56.886Z,1948.00
2024-02-02T07:46:56.867Z,1972.00
2024-02-02T07:47:57.141Z,1980.00
2024-02-02T07:48:57.173Z,1980.00
2024-02-02T07:49:56.859Z,1988.00
2024-02-02T07:50:56.878Z,1985.00
2024-02-02T07:51:56.882Z,1983.00
2024-02-02T07:52:56.952Z,1954.00
2024-02-02T07:53:56.929Z,1962.00
2024-02-02T07:54:56.850Z,1944.00
2024-02-02T07:55:56.865Z,1745.00
2024-02-02T07:56:56.948Z,1750.00
2024-02-02T07:57:56.852Z,1786.00
2024-02-02T07:58:56.890Z,1912.00
2024-02-02T07:59:56.909Z,1927.00
2024-02-02T08:00:56.958Z,1937.00
2024-02-02T08:01:56.865Z,1950.00
2024-02-02T08:02:57.006Z,2209.00
2024-02-02T08:03:56.987Z,2173.00
2024-02-02T08:04:57.062Z,2136.00
2024-02-02T08:05:57.150Z,2120.00
2024-02-02T08:06:57.004Z,2118.00
2024-02-02T08:07:56.907Z,2121.00
2024-02-02T08:08:56.900Z,2126.00
2024-02-02T08:09:56.906Z,2135.00
2024-02-02T08:10:56.881Z,2352.00
2024-02-02T08:11:56.910Z,2357.00
2024-02-02T08:12:56.928Z,2344.00
2024-02-02T08:13:56.894Z,5517.00
2024-02-02T08:14:56.896Z,2404.00
2024-02-02T08:15:56.876Z,2370.00
2024-02-02T08:16:56.890Z,2367.00
2024-02-02T08:17:56.949Z,2368.00
2024-02-02T08:18:57.023Z,2422.00
2024-02-02T08:19:57.036Z,2592.00
2024-02-02T08:20:56.923Z,2513.00
2024-02-02T08:21:56.879Z,2520.00
2024-02-02T08:22:56.927Z,2529.00
2024-02-02T08:23:56.950Z,2530.00
2024-02-02T08:24:56.885Z,2533.00
2024-02-02T08:25:56.966Z,2538.00
2024-02-02T08:26:56.970Z,2546.00
2024-02-02T08:27:56.914Z,2551.00
2024-02-02T08:28:56.910Z,2557.00
2024-02-02T08:29:56.931Z,2565.00
2024-02-02T08:30:56.913Z,2568.00
2024-02-02T08:31:56.925Z,2579.00
2024-02-02T08:32:57.214Z,2598.00
2024-02-02T08:33:57.030Z,2629.00
2024-02-02T08:34:56.919Z,2660.00
2024-02-02T08:35:56.966Z,2679.00
2024-02-02T08:36:56.910Z,2689.00
2024-02-02T08:37:56.929Z,2697.00
2024-02-02T08:38:56.984Z,2706.00
2024-02-02T08:39:56.948Z,2720.00
2024-02-02T08:40:56.945Z,2740.00
2024-02-02T08:41:56.999Z,2745.00
2024-02-02T08:42:56.952Z,2750.00
2024-02-02T08:43:56.936Z,2769.00
2024-02-02T08:44:57.016Z,2790.00
2024-02-02T08:45:57.040Z,2542.00
2024-02-02T08:46:56.930Z,2124.00
2024-02-02T08:47:57.122Z,1625.00
2024-02-02T08:48:57.114Z,1772.00
2024-02-02T08:49:57.520Z,2012.00
2024-02-02T08:50:57.087Z,1924.00
2024-02-02T08:51:57.076Z,2093.00
2024-02-02T08:52:57.078Z,2183.00
2024-02-02T08:53:57.113Z,2208.00
2024-02-02T08:54:57.134Z,2207.00
2024-02-02T08:55:57.184Z,2177.00
2024-02-02T08:56:57.138Z,2174.00
2024-02-02T08:57:57.144Z,2180.00
2024-02-02T08:58:57.179Z,2189.00
2024-02-02T08:59:57.196Z,2196.00
2024-02-02T09:00:57.314Z,2201.00
2024-02-02T09:01:57.216Z,2207.00
2024-02-02T09:02:59.293Z,2213.00
2024-02-02T09:03:57.354Z,2224.00
2024-02-02T09:04:57.285Z,2240.00
2024-02-02T09:05:57.443Z,2255.00
2024-02-02T09:06:57.427Z,2261.00
2024-02-02T09:07:57.294Z,2269.00
2024-02-02T09:08:57.318Z,2275.00
2024-02-02T09:09:57.472Z,2286.00
2024-02-02T09:10:57.322Z,2297.00
2024-02-02T09:11:57.334Z,2311.00
2024-02-02T09:12:57.323Z,2326.00
2024-02-02T09:13:57.324Z,2340.00
2024-02-02T09:14:57.336Z,2350.00
2024-02-02T09:15:57.285Z,2360.00
2024-02-02T09:16:57.302Z,2373.00
2024-02-02T09:17:57.437Z,2387.00
2024-02-02T09:19:57.416Z,2412.00
2024-02-02T09:20:57.376Z,2430.00
2024-02-02T09:21:57.314Z,2446.00
2024-02-02T09:22:57.304Z,2461.00
2024-02-02T09:23:57.337Z,2467.00
2024-02-02T09:24:57.337Z,2477.00
2024-02-02T09:25:57.326Z,2488.00
2024-02-02T09:26:57.410Z,2499.00
2024-02-02T09:27:57.346Z,2516.00
2024-02-02T09:28:57.335Z,2528.00
2024-02-02T09:29:57.334Z,2541.00
2024-02-02T09:30:57.306Z,2552.00
2024-02-02T09:31:57.324Z,2562.00
2024-02-02T09:32:57.391Z,2571.00
2024-02-02T09:33:57.491Z,2580.00
2024-02-02T09:34:57.339Z,2591.00
2024-02-02T09:35:57.366Z,2599.00
2024-02-02T09:36:57.333Z,2609.00
2024-02-02T09:37:57.340Z,2614.00
2024-02-02T09:38:57.503Z,2614.00
2024-02-02T09:39:57.358Z,2523.00
2024-02-02T09:40:57.390Z,2518.00
2024-02-02T09:41:57.525Z,2512.00
2024-02-02T09:42:59.158Z,2477.00
2024-02-02T09:43:57.612Z,2455.00
2024-02-02T09:44:57.536Z,2434.00
2024-02-02T09:45:57.479Z,2437.00
2024-02-02T09:46:57.493Z,2448.00
2024-02-02T09:47:57.578Z,2458.00
2024-02-02T09:48:57.563Z,2474.00
2024-02-02T09:49:57.581Z,2484.00
2024-02-02T09:50:57.524Z,2489.00
2024-02-02T09:51:57.492Z,2487.00
2024-02-02T09:52:57.507Z,2487.00
2024-02-02T09:53:57.549Z,2496.00
2024-02-02T09:54:57.463Z,2503.00
2024-02-02T09:55:57.462Z,2511.00
2024-02-02T09:56:57.638Z,2518.00
2024-02-02T09:57:57.482Z,2536.00
2024-02-02T09:58:57.493Z,2573.00
2024-02-02T09:59:57.466Z,2591.00
2024-02-02T10:00:57.569Z,2601.00
2024-02-02T10:01:57.488Z,2615.00
2024-02-02T10:02:57.480Z,2628.00
2024-02-02T10:03:57.604Z,2640.00
2024-02-02T10:04:57.492Z,2652.00
2024-02-02T10:05:57.556Z,2668.00
2024-02-02T10:06:57.575Z,2678.00
2024-02-02T10:07:57.510Z,2686.00
2024-02-02T10:08:57.544Z,2697.00
2024-02-02T10:09:57.522Z,2708.00
2024-02-02T10:10:57.518Z,2708.00
2024-02-02T10:11:57.526Z,2715.00
2024-02-02T10:12:57.529Z,2721.00
2024-02-02T10:13:57.553Z,2727.00
2024-02-02T10:14:57.528Z,2734.00
2024-02-02T10:15:57.504Z,2745.00
2024-02-02T10:16:57.506Z,2755.00
2024-02-02T10:17:57.628Z,2762.00
2024-02-02T10:18:59.455Z,2773.00
2024-02-02T10:19:57.497Z,2782.00
2024-02-02T10:20:57.566Z,2792.00
2024-02-02T10:21:57.522Z,2801.00
2024-02-02T10:22:57.522Z,2806.00
2024-02-02T10:24:02.270Z,2814.00
2024-02-02T10:24:58.702Z,2825.00
2024-02-02T10:25:57.530Z,2832.00
2024-02-02T10:26:57.580Z,2844.00
2024-02-02T10:27:57.546Z,2859.00
2024-02-02T10:28:57.530Z,2870.00
2024-02-02T10:29:57.583Z,2882.00
2024-02-02T10:30:57.574Z,2891.00
2024-02-02T10:31:57.576Z,2906.00
2024-02-02T10:32:57.566Z,2919.00
2024-02-02T10:33:57.648Z,2930.00
2024-02-02T10:34:57.545Z,2943.00
2024-02-02T10:35:57.574Z,2950.00
2024-02-02T10:36:57.512Z,2957.00
2024-02-02T10:37:57.516Z,2967.00
2024-02-02T10:38:57.595Z,2977.00
2024-02-02T10:39:57.540Z,2982.00
2024-02-02T10:40:57.555Z,2988.00
2024-02-02T10:41:57.606Z,2999.00
2024-02-02T10:42:57.560Z,3013.00
2024-02-02T10:43:57.566Z,3021.00
2024-02-02T10:44:57.598Z,3016.00
2024-02-02T10:45:57.559Z,2979.00
2024-02-02T10:46:57.554Z,2321.00
2024-02-02T10:47:57.709Z,2547.00
2024-02-02T10:48:57.680Z,2315.00
2024-02-02T10:49:57.755Z,2297.00
2024-02-02T10:50:57.668Z,2004.00
2024-02-02T10:51:57.645Z,1789.00
2024-02-02T10:52:57.720Z,1787.00
2024-02-02T10:53:57.819Z,1770.00
2024-02-02T10:54:57.827Z,1747.00
2024-02-02T10:55:57.985Z,1690.00
2024-02-02T10:56:57.991Z,1671.00
2024-02-02T10:57:58.024Z,1669.00
2024-02-02T10:58:58.115Z,1672.00
2024-02-02T10:59:58.183Z,1718.00
2024-02-02T11:00:58.270Z,1554.00
2024-02-02T11:01:58.292Z,1577.00
2024-02-02T11:02:58.474Z,1853.00
2024-02-02T11:03:58.573Z,1885.00
2024-02-02T11:04:58.475Z,1902.00
2024-02-02T11:05:58.624Z,1899.00
2024-02-02T11:06:58.865Z,1896.00
2024-02-02T11:07:58.725Z,1898.00
2024-02-02T11:08:58.888Z,1908.00
2024-02-02T11:09:58.882Z,1915.00
2024-02-02T11:10:58.800Z,1930.00
2024-02-02T11:11:59.031Z,1946.00
2024-02-02T11:12:58.910Z,1962.00
2024-02-02T11:13:58.858Z,1980.00
2024-02-02T11:14:58.960Z,1999.00
2024-02-02T11:15:58.936Z,2012.00
2024-02-02T11:16:58.952Z,2031.00
2024-02-02T11:17:59.126Z,2049.00
2024-02-02T11:18:59.253Z,2064.00
2024-02-02T11:19:59.069Z,2065.00
2024-02-02T11:20:59.094Z,2073.00
2024-02-02T11:21:59.076Z,2085.00
2024-02-02T11:22:59.121Z,2098.00
2024-02-02T11:23:59.203Z,2105.00
2024-02-02T11:24:59.241Z,2112.00
2024-02-02T11:25:59.176Z,2119.00
2024-02-02T11:26:59.252Z,2128.00
2024-02-02T11:27:59.289Z,2142.00
2024-02-02T11:28:59.298Z,2149.00
2024-02-02T11:29:59.387Z,2160.00
2024-02-02T11:30:59.349Z,2173.00
2024-02-02T11:31:59.355Z,2186.00
2024-02-02T11:32:59.512Z,2195.00
2024-02-02T11:33:59.527Z,2204.00
2024-02-02T11:34:59.393Z,2216.00
2024-02-02T11:35:59.472Z,2223.00
2024-02-02T11:36:59.459Z,2231.00
2024-02-02T11:37:59.479Z,2234.00
2024-02-02T11:38:59.576Z,2240.00
2024-02-02T11:39:59.531Z,2248.00
2024-02-02T11:40:59.544Z,2257.00
2024-02-02T11:41:59.582Z,2271.00
2024-02-02T11:42:59.554Z,2290.00
2024-02-02T11:43:59.574Z,2299.00
2024-02-02T11:44:59.639Z,2300.00
2024-02-02T11:45:59.601Z,2300.00
2024-02-02T11:46:59.631Z,2299.00
2024-02-02T11:47:59.764Z,2301.00
2024-02-02T11:48:59.742Z,2293.00
2024-02-02T11:49:59.761Z,2287.00
2024-02-02T11:50:59.792Z,2288.00
2024-02-02T11:52:02.769Z,2293.00
2024-02-02T11:52:59.759Z,2297.00
2024-02-02T11:53:59.810Z,2292.00
2024-02-02T11:54:59.759Z,2293.00
2024-02-02T11:55:59.764Z,2287.00
2024-02-02T11:56:59.818Z,2282.00
2024-02-02T11:57:59.750Z,2278.00
2024-02-02T11:58:59.777Z,2279.00
2024-02-02T11:59:59.799Z,2291.00
2024-02-02T12:00:59.825Z,2284.00
2024-02-02T12:01:59.825Z,2273.00
2024-02-02T12:02:59.836Z,2268.00
2024-02-02T12:03:59.793Z,2269.00
2024-02-02T12:04:59.795Z,2270.00
2024-02-02T12:05:59.854Z,2268.00
2024-02-02T12:06:59.819Z,2262.00
2024-02-02T12:07:59.793Z,2256.00
2024-02-02T12:08:59.821Z,2251.00
2024-02-02T12:09:59.775Z,2247.00
2024-02-02T12:10:59.769Z,2248.00
2024-02-02T12:11:59.827Z,2244.00
2024-02-02T12:12:59.801Z,2244.00
2024-02-02T12:13:59.769Z,2245.00
2024-02-02T12:14:59.784Z,2238.00
2024-02-02T12:15:59.879Z,2236.00
2024-02-02T12:16:59.791Z,2232.00
2024-02-02T12:18:03.690Z,2228.00
2024-02-02T12:18:59.931Z,2226.00
2024-02-02T12:20:00.111Z,2223.00
2024-02-02T12:20:59.849Z,2218.00